createdAt,value
2018-04-14T00:02:05.564Z,35.10
2018-04-14T00:04:33.877Z,35.20
2018-04-14T00:07:01.412Z,35.10
2018-04-14T00:09:29.019Z,34.90
2018-04-14T00:11:56.574Z,34.50
2018-04-14T00:14:24.131Z,34.80
2018-04-14T00:16:51.730Z,35.00
2018-04-14T00:19:19.295Z,35.00
2018-04-14T00:21:47.607Z,34.90
2018-04-14T00:24:20.281Z,34.90
2018-04-14T00:26:47.854Z,35.20
2018-04-14T00:29:15.406Z,35.30
2018-04-14T00:31:42.986Z,35.20
2018-04-14T00:34:34.450Z,35.40
2018-04-14T00:37:02.020Z,35.10
2018-04-14T00:39:29.584Z,34.70
2018-04-14T00:41:57.184Z,34.40
2018-04-14T00:44:24.831Z,34.60
2018-04-14T00:46:52.402Z,34.60
2018-04-14T00:49:20.827Z,34.60
2018-04-14T00:51:48.395Z,34.60
2018-04-14T00:54:16.158Z,34.40
2018-04-14T00:56:43.743Z,34.40
2018-04-14T00:59:11.287Z,34.50
2018-04-14T01:01:38.859Z,34.40
2018-04-14T01:04:20.711Z,34.70
2018-04-14T01:06:48.278Z,34.70
2018-04-14T01:09:15.855Z,34.80
2018-04-14T01:11:43.450Z,34.70
2018-04-14T01:14:11.047Z,34.90
2018-04-14T01:16:39.394Z,34.70
2018-04-14T01:19:06.963Z,34.60
2018-04-14T01:21:34.506Z,34.60
2018-04-14T01:24:02.252Z,34.60
2018-04-14T01:26:29.827Z,34.60
2018-04-14T01:28:57.364Z,34.80
2018-04-14T01:31:24.947Z,34.60
2018-04-14T01:33:52.530Z,34.90
2018-04-14T01:36:20.128Z,34.70
2018-04-14T01:38:47.708Z,35.10
2018-04-14T01:41:15.281Z,34.80
2018-04-14T01:43:42.838Z,34.40
2018-04-14T01:46:10.398Z,34.20
2018-04-14T01:48:37.966Z,34.30
2018-04-14T01:51:05.515Z,34.00
2018-04-14T01:53:33.110Z,34.00
2018-04-14T01:56:01.459Z,34.30
2018-04-14T01:58:29.018Z,34.10
2018-04-14T02:00:56.567Z,34.00
2018-04-14T02:03:24.137Z,34.30
2018-04-14T02:05:51.726Z,34.20
2018-04-14T02:08:19.306Z,34.00
2018-04-14T02:10:46.843Z,34.00
2018-04-14T02:13:15.367Z,34.80
2018-04-14T02:15:42.894Z,34.30
2018-04-14T02:18:11.208Z,34.10
2018-04-14T02:20:39.494Z,34.20
2018-04-14T02:23:07.026Z,34.10
2018-04-14T02:25:34.825Z,34.00
2018-04-14T02:28:02.334Z,34.30
2018-04-14T02:30:29.868Z,34.70
2018-04-14T02:32:57.459Z,34.50
2018-04-14T02:35:25.012Z,34.40
2018-04-14T02:37:53.627Z,34.00
2018-04-14T02:40:21.147Z,34.00
2018-04-14T02:42:49.439Z,34.00
2018-04-14T02:45:17.005Z,34.00
2018-04-14T02:47:44.537Z,34.00
2018-04-14T02:50:12.049Z,34.00
2018-04-14T02:52:39.602Z,34.10
2018-04-14T02:55:07.123Z,34.30
2018-04-14T02:57:34.651Z,34.40
2018-04-14T03:00:02.233Z,34.50
2018-04-14T03:02:30.547Z,34.60
2018-04-14T03:04:58.049Z,34.60
2018-04-14T03:07:25.563Z,34.00
2018-04-14T03:09:53.119Z,33.80
2018-04-14T03:12:20.642Z,33.80
2018-04-14T03:14:48.194Z,34.00
2018-04-14T03:17:16.580Z,33.80
2018-04-14T03:19:44.094Z,33.90
2018-04-14T03:22:11.610Z,33.90
2018-04-14T03:24:39.271Z,34.10
2018-04-14T03:27:06.787Z,34.30
2018-04-14T03:29:34.305Z,34.80
2018-04-14T03:32:01.851Z,34.20
2018-04-14T03:34:29.386Z,34.10
2018-04-14T03:36:57.661Z,33.80
2018-04-14T03:39:25.977Z,33.80
2018-04-14T03:41:53.499Z,33.80
2018-04-14T03:44:21.079Z,34.00
2018-04-14T03:46:48.635Z,34.00
2018-04-14T03:49:16.172Z,33.80
2018-04-14T03:51:43.691Z,34.00
2018-04-14T03:54:11.239Z,34.20
2018-04-14T03:56:38.829Z,33.90
2018-04-14T03:59:06.358Z,33.90
2018-04-14T04:01:33.883Z,33.70
2018-04-14T04:04:01.414Z,33.80
2018-04-14T04:06:29.751Z,33.80
2018-04-14T04:08:57.270Z,33.80
2018-04-14T04:11:25.550Z,33.80
2018-04-14T04:13:53.094Z,33.80
2018-04-14T04:16:20.618Z,33.60
2018-04-14T04:18:59.866Z,33.70
2018-04-14T04:21:39.293Z,33.30
2018-04-14T04:24:22.419Z,33.60
2018-04-14T04:26:49.943Z,33.30
2018-04-14T04:29:17.486Z,33.40
2018-04-14T04:31:44.995Z,33.40
2018-04-14T04:34:17.486Z,34.70
2018-04-14T04:36:45.835Z,34.20
2018-04-14T04:39:13.330Z,34.20
2018-04-14T04:41:40.871Z,34.00
2018-04-14T04:44:18.070Z,33.90
2018-04-14T04:46:46.338Z,34.30
2018-04-14T04:49:13.858Z,34.30
2018-04-14T04:51:41.404Z,34.00
2018-04-14T04:54:08.923Z,34.20
2018-04-14T04:56:37.181Z,34.70
2018-04-14T04:59:04.718Z,34.60
2018-04-14T05:01:32.248Z,34.60
2018-04-14T05:03:59.787Z,34.30
2018-04-14T05:06:27.313Z,33.80
2018-04-14T05:08:54.883Z,33.50
2018-04-14T05:11:23.230Z,33.50
2018-04-14T05:13:50.747Z,33.40
2018-04-14T05:16:18.267Z,33.60
2018-04-14T05:18:45.824Z,33.30
2018-04-14T05:21:13.351Z,33.30
2018-04-14T05:23:40.870Z,33.30
2018-04-14T05:26:08.542Z,33.40
2018-04-14T05:28:36.074Z,33.30
2018-04-14T05:31:04.371Z,33.30
2018-04-14T05:36:30.643Z,32.90
2018-04-14T05:38:58.151Z,32.90
2018-04-14T05:41:25.716Z,33.10
2018-04-14T05:43:53.279Z,32.90
2018-04-14T05:46:20.798Z,33.10
2018-04-14T05:48:48.343Z,32.60
2018-04-14T05:51:15.878Z,32.90
2018-04-14T05:53:43.415Z,32.90
2018-04-14T05:56:11.709Z,33.10
2018-04-14T05:58:39.226Z,33.10
2018-04-14T06:01:06.818Z,33.00
2018-04-14T06:03:34.470Z,32.80
2018-04-14T06:06:02.781Z,33.60
2018-04-14T06:08:30.369Z,33.50
2018-04-14T06:10:57.893Z,33.30
2018-04-14T06:13:25.528Z,33.50
2018-04-14T06:15:53.822Z,33.20
2018-04-14T06:18:21.386Z,33.20
2018-04-14T06:20:48.905Z,32.90
2018-04-14T06:23:16.569Z,33.00
2018-04-14T06:25:44.136Z,33.00
2018-04-14T06:28:11.681Z,33.00
2018-04-14T06:30:39.222Z,33.60
2018-04-14T06:33:30.728Z,33.20
2018-04-14T06:35:58.275Z,33.10
2018-04-14T06:38:25.798Z,32.90
2018-04-14T06:40:53.338Z,33.10
2018-04-14T06:43:21.715Z,32.90
2018-04-14T06:45:49.250Z,32.90
2018-04-14T06:48:16.786Z,33.20
2018-04-14T06:50:44.307Z,33.20
2018-04-14T06:53:16.757Z,33.50
2018-04-14T06:55:44.281Z,33.30
2018-04-14T06:58:11.794Z,33.20
2018-04-14T07:00:40.088Z,33.10
2018-04-14T07:03:07.910Z,33.10
2018-04-14T07:05:35.434Z,33.00
2018-04-14T07:08:02.941Z,33.00
2018-04-14T07:10:30.486Z,33.00
2018-04-14T07:13:07.823Z,33.00
2018-04-14T07:15:35.369Z,33.00
2018-04-14T07:18:02.889Z,33.70
2018-04-14T07:20:30.471Z,32.70
2018-04-14T07:22:57.955Z,32.80
2018-04-14T07:25:25.482Z,32.80
2018-04-14T07:27:53.783Z,32.80
2018-04-14T07:30:21.343Z,32.80
2018-04-14T07:32:48.843Z,32.50
2018-04-14T07:35:16.392Z,32.70
2018-04-14T07:37:43.908Z,32.60
2018-04-14T07:40:11.450Z,32.20
2018-04-14T07:42:40.046Z,32.20
2018-04-14T07:45:07.562Z,32.20
2018-04-14T07:47:35.094Z,31.90
2018-04-14T07:50:02.635Z,32.10
2018-04-14T07:52:30.150Z,32.40
2018-04-14T07:54:57.667Z,32.10
2018-04-14T07:57:25.994Z,32.20
2018-04-14T07:59:54.547Z,31.60
2018-04-14T08:02:22.063Z,31.50
2018-04-14T08:07:42.586Z,30.90
2018-04-14T08:10:10.107Z,30.60
2018-04-14T08:12:52.774Z,30.90
2018-04-14T08:15:20.318Z,30.90
2018-04-14T08:17:47.847Z,30.40
2018-04-14T08:20:16.134Z,30.40
2018-04-14T08:22:43.659Z,30.40
2018-04-14T08:25:11.247Z,29.60
2018-04-14T08:27:38.774Z,29.70
2018-04-14T08:30:06.401Z,29.60
2018-04-14T08:32:33.910Z,29.80
2018-04-14T08:35:02.221Z,29.80
2018-04-14T08:37:29.828Z,29.80
2018-04-14T08:39:57.322Z,29.50
2018-04-14T08:42:24.850Z,29.60
2018-04-14T08:44:53.182Z,29.40
2018-04-14T08:47:21.501Z,29.50
2018-04-14T08:49:49.003Z,29.40
2018-04-14T08:52:17.083Z,29.60
2018-04-14T08:54:44.591Z,29.30
2018-04-14T08:57:12.886Z,29.40
2018-04-14T08:59:40.406Z,29.30
2018-04-14T09:02:07.923Z,29.20
2018-04-14T09:04:35.482Z,29.00
2018-04-14T09:07:03.040Z,29.10
2018-04-14T09:09:30.584Z,29.30
2018-04-14T09:11:58.122Z,28.90
2018-04-14T09:14:36.174Z,28.80
2018-04-14T09:17:03.703Z,28.80
2018-04-14T09:19:31.240Z,28.90
2018-04-14T09:21:59.592Z,28.60
2018-04-14T09:24:27.183Z,28.60
2018-04-14T09:26:54.690Z,28.50
2018-04-14T09:29:22.246Z,28.90
2018-04-14T09:31:49.771Z,28.50
2018-04-14T09:34:31.710Z,28.50
2018-04-14T09:36:59.246Z,28.10
2018-04-14T09:39:26.779Z,28.10
2018-04-14T09:41:54.338Z,28.10
2018-04-14T09:44:23.143Z,27.50
2018-04-14T09:46:50.655Z,27.70
2018-04-14T09:49:18.181Z,28.00
2018-04-14T09:51:45.702Z,28.30
2018-04-14T09:54:27.646Z,27.10
2018-04-14T09:56:55.171Z,28.00
2018-04-14T09:59:22.701Z,27.50
2018-04-14T10:01:51.011Z,33.30
2018-04-14T10:04:23.647Z,33.20
2018-04-14T10:06:52.011Z,32.70
2018-04-14T10:09:19.531Z,32.60
2018-04-14T10:11:47.050Z,34.10
2018-04-14T10:14:15.352Z,37.20
2018-04-14T10:16:42.866Z,37.10
2018-04-14T10:19:11.162Z,37.20
2018-04-14T10:21:38.719Z,37.20
2018-04-14T10:24:06.277Z,37.20
2018-04-14T10:26:34.567Z,34.50
2018-04-14T10:29:02.126Z,34.50
2018-04-14T10:31:29.668Z,31.10
2018-04-14T10:33:57.971Z,29.80
2018-04-14T10:36:26.148Z,29.80
2018-04-14T10:38:53.675Z,35.20
2018-04-14T10:41:21.198Z,34.70
2018-04-14T10:43:48.852Z,34.80
2018-04-14T10:46:17.122Z,35.70
2018-04-14T10:48:44.651Z,35.70
2018-04-14T10:51:12.202Z,36.90
2018-04-14T10:53:39.834Z,36.10
2018-04-14T10:56:07.444Z,34.50
2018-04-14T10:58:34.980Z,36.60
2018-04-14T11:01:02.490Z,34.30
2018-04-14T11:03:30.026Z,35.00
2018-04-14T11:05:57.562Z,34.80
2018-04-14T11:08:25.159Z,34.30
2018-04-14T11:10:52.763Z,34.40
2018-04-14T11:13:21.077Z,35.00
2018-04-14T11:15:48.615Z,35.50
2018-04-14T11:18:16.149Z,34.00
2018-04-14T11:20:43.669Z,34.50
2018-04-14T11:23:11.255Z,35.10
2018-04-14T11:25:39.562Z,33.00
2018-04-14T11:28:07.078Z,33.00
2018-04-14T11:30:34.688Z,34.10
2018-04-14T11:33:02.211Z,33.10
2018-04-14T11:35:30.497Z,32.90
2018-04-14T11:37:58.054Z,32.90
2018-04-14T11:40:25.727Z,32.60
2018-04-14T11:42:53.253Z,32.30
2018-04-14T11:45:20.822Z,31.60
2018-04-14T11:47:48.350Z,32.70
2018-04-14T11:50:15.880Z,32.10
2018-04-14T11:52:43.427Z,32.50
2018-04-14T11:55:10.963Z,31.60
2018-04-14T11:57:39.255Z,31.10
2018-04-14T12:00:06.786Z,31.10
2018-04-14T12:02:34.315Z,30.70
2018-04-14T12:05:01.911Z,29.90
2018-04-14T12:07:29.477Z,29.80
2018-04-14T12:09:57.025Z,30.20
2018-04-14T12:12:25.310Z,29.80
2018-04-14T12:14:53.631Z,29.40
2018-04-14T12:17:21.914Z,28.10
2018-04-14T12:19:49.421Z,28.10
2018-04-14T12:22:16.999Z,28.40
2018-04-14T12:24:44.598Z,28.40
2018-04-14T12:27:12.118Z,28.80
2018-04-14T12:29:39.638Z,29.10
2018-04-14T12:32:07.222Z,29.30
2018-04-14T12:34:34.796Z,29.60
2018-04-14T12:37:02.290Z,29.60
2018-04-14T12:39:29.875Z,29.30
2018-04-14T12:41:57.431Z,29.80
2018-04-14T12:44:25.577Z,29.80
2018-04-14T12:46:53.183Z,29.60
2018-04-14T12:49:20.738Z,30.00
2018-04-14T12:51:49.027Z,30.20
2018-04-14T12:54:16.562Z,30.20
2018-04-14T12:56:44.868Z,29.10
2018-04-14T12:59:12.413Z,29.10
2018-04-14T13:01:39.943Z,29.50
2018-04-14T13:04:07.471Z,29.40
2018-04-14T13:06:35.030Z,29.50
2018-04-14T13:09:02.559Z,29.80
2018-04-14T13:11:30.054Z,29.60
2018-04-14T13:13:57.692Z,29.80
2018-04-14T13:16:25.274Z,30.40
2018-04-14T13:18:52.869Z,30.90
2018-04-14T13:21:20.431Z,30.70
2018-04-14T13:23:47.954Z,30.00
2018-04-14T13:26:15.470Z,30.00
2018-04-14T13:28:43.050Z,29.60
2018-04-14T13:31:10.566Z,29.10
2018-04-14T13:33:38.091Z,29.00
2018-04-14T13:36:05.623Z,29.10
2018-04-14T13:38:33.138Z,29.30
2018-04-14T13:41:01.439Z,31.00
2018-04-14T13:43:29.086Z,31.00
2018-04-14T13:45:56.611Z,29.30
2018-04-14T13:48:24.118Z,29.10
2018-04-14T13:50:51.649Z,30.00
2018-04-14T13:53:20.139Z,30.40
2018-04-14T13:55:47.680Z,30.40
2018-04-14T13:58:15.228Z,29.80
2018-04-14T14:00:42.777Z,29.40
2018-04-14T14:03:10.304Z,30.20
2018-04-14T14:05:37.870Z,30.50
2018-04-14T14:08:05.398Z,30.10
2018-04-14T14:10:32.919Z,30.00
2018-04-14T14:13:00.446Z,29.40
2018-04-14T14:15:27.984Z,29.50
2018-04-14T14:17:55.502Z,29.90
2018-04-14T14:20:23.065Z,29.60
2018-04-14T14:22:55.796Z,29.80
2018-04-14T14:25:23.348Z,30.00
2018-04-14T14:27:50.890Z,29.90
2018-04-14T14:30:19.027Z,29.20
2018-04-14T14:32:46.567Z,29.30
2018-04-14T14:35:14.080Z,28.90
2018-04-14T14:37:41.597Z,29.50
2018-04-14T14:40:09.143Z,29.30
2018-04-14T14:42:36.781Z,29.20
2018-04-14T14:45:04.402Z,29.70
2018-04-14T14:47:37.535Z,29.20
2018-04-14T14:50:10.739Z,29.20
2018-04-14T14:52:38.274Z,29.90
2018-04-14T14:55:05.829Z,29.80
2018-04-14T14:57:33.343Z,29.80
2018-04-14T15:00:01.370Z,29.20
2018-04-14T15:02:28.882Z,29.00
2018-04-14T15:04:57.227Z,29.50
2018-04-14T15:07:24.811Z,29.40
2018-04-14T15:09:52.380Z,30.30
2018-04-14T15:12:19.950Z,29.60
2018-04-14T15:14:47.715Z,31.00
2018-04-14T15:17:15.259Z,30.50
2018-04-14T15:19:43.590Z,31.50
2018-04-14T15:22:11.111Z,31.40
2018-04-14T15:24:38.750Z,31.60
2018-04-14T15:27:06.282Z,31.30
2018-04-14T15:29:33.817Z,30.90
2018-04-14T15:32:01.326Z,29.60
2018-04-14T15:34:33.812Z,30.00
2018-04-14T15:37:02.150Z,31.40
2018-04-14T15:39:29.653Z,31.30
2018-04-14T15:41:57.179Z,31.10
2018-04-14T15:44:24.870Z,31.50
2018-04-14T15:46:52.399Z,31.10
2018-04-14T15:49:20.686Z,32.40
2018-04-14T15:51:49.012Z,33.20
2018-04-14T15:54:30.898Z,33.20
2018-04-14T15:56:58.438Z,34.80
2018-04-14T15:59:25.982Z,33.90
2018-04-14T16:01:54.276Z,35.90
2018-04-14T16:04:31.561Z,35.80
2018-04-14T16:06:59.082Z,35.30
2018-04-14T16:09:26.592Z,35.90
2018-04-14T16:11:54.147Z,35.30
2018-04-14T16:14:26.899Z,34.40
2018-04-14T16:16:54.454Z,34.30
2018-04-14T16:19:21.999Z,34.20
2018-04-14T16:21:49.523Z,34.80
2018-04-14T16:24:17.030Z,35.40
2018-04-14T16:26:44.566Z,35.50
2018-04-14T16:29:12.146Z,35.70
2018-04-14T16:31:39.673Z,35.70
2018-04-14T16:34:07.224Z,35.10
2018-04-14T16:36:34.743Z,36.20
2018-04-14T16:39:02.292Z,35.50
2018-04-14T16:41:29.910Z,35.90
2018-04-14T16:43:57.488Z,35.80
2018-04-14T16:46:25.011Z,35.40
2018-04-14T16:48:52.599Z,35.40
2018-04-14T16:51:20.084Z,36.80
2018-04-14T16:53:48.371Z,37.50
2018-04-14T16:56:15.948Z,37.40
2018-04-14T16:58:43.483Z,37.20
2018-04-14T17:01:11.011Z,38.30
2018-04-14T17:03:39.336Z,37.60
2018-04-14T17:06:06.858Z,37.60
2018-04-14T17:08:35.177Z,37.60
2018-04-14T17:11:02.748Z,37.60
2018-04-14T17:13:30.527Z,37.40
2018-04-14T17:15:58.035Z,37.30
2018-04-14T17:18:25.571Z,37.40
2018-04-14T17:20:53.123Z,37.40
2018-04-14T17:23:20.670Z,38.50
2018-04-14T17:25:48.190Z,38.20
2018-04-14T17:28:15.723Z,38.30
2018-04-14T17:30:43.274Z,38.80
2018-04-14T17:33:11.582Z,39.10
2018-04-14T17:35:39.111Z,39.10
2018-04-14T17:38:06.676Z,39.60
2018-04-14T17:40:34.178Z,37.90
2018-04-14T17:43:01.690Z,37.30
2018-04-14T17:45:29.264Z,35.90
2018-04-14T17:47:56.814Z,37.70
2018-04-14T17:50:24.366Z,38.20
2018-04-14T17:52:51.911Z,37.60
2018-04-14T17:55:19.467Z,37.30
2018-04-14T17:57:47.766Z,35.10
2018-04-14T18:00:15.282Z,35.10
2018-04-14T18:02:42.811Z,35.80
2018-04-14T18:05:10.410Z,36.30
2018-04-14T18:07:37.934Z,35.20
2018-04-14T18:10:05.489Z,34.40
2018-04-14T18:12:33.016Z,33.30
2018-04-14T18:15:05.463Z,33.50
2018-04-14T18:17:33.007Z,34.00
2018-04-14T18:20:00.567Z,34.90
2018-04-14T18:22:28.118Z,33.40
2018-04-14T18:25:05.402Z,35.00
2018-04-14T18:27:33.011Z,35.90
2018-04-14T18:30:00.577Z,36.20
2018-04-14T18:32:28.078Z,37.40
2018-04-14T18:34:55.623Z,38.40
2018-04-14T18:37:23.161Z,38.90
2018-04-14T18:39:50.674Z,40.60
2018-04-14T18:42:18.203Z,41.70
2018-04-14T18:44:45.714Z,40.90
2018-04-14T18:47:13.209Z,42.10
2018-04-14T18:49:40.771Z,42.00
2018-04-14T18:52:08.282Z,42.30
2018-04-14T18:54:35.814Z,43.20
2018-04-14T18:57:03.330Z,44.10
2018-04-14T18:59:30.903Z,44.50
2018-04-14T19:01:58.427Z,44.80
2018-04-14T19:04:26.011Z,45.30
2018-04-14T19:06:53.541Z,44.80
2018-04-14T19:09:21.088Z,45.00
2018-04-14T19:11:48.646Z,44.70
2018-04-14T19:14:16.931Z,45.40
2018-04-14T19:16:44.466Z,45.40
2018-04-14T19:19:11.996Z,45.20
2018-04-14T19:21:39.518Z,44.30
2018-04-14T19:24:07.057Z,44.20
2018-04-14T19:26:35.354Z,43.40
2018-04-14T19:29:02.948Z,43.40
2018-04-14T19:31:30.466Z,43.70
2018-04-14T19:33:58.031Z,44.30
2018-04-14T19:36:25.590Z,44.70
2018-04-14T19:38:53.114Z,44.90
2018-04-14T19:41:20.639Z,44.80
2018-04-14T19:43:53.274Z,45.20
2018-04-14T19:46:20.818Z,44.70
2018-04-14T19:48:49.127Z,44.80
2018-04-14T19:51:16.648Z,44.70
2018-04-14T19:53:44.991Z,45.40
2018-04-14T19:56:12.529Z,45.30
2018-04-14T19:58:40.066Z,45.50
2018-04-14T20:01:07.606Z,45.90
2018-04-14T20:03:35.175Z,46.20
2018-04-14T20:06:02.796Z,46.30
2018-04-14T20:08:30.327Z,46.30
2018-04-14T20:10:57.903Z,46.40
2018-04-14T20:13:25.415Z,46.10
2018-04-14T20:15:52.940Z,45.70
2018-04-14T20:18:20.507Z,45.40
2018-04-14T20:20:48.034Z,45.70
2018-04-14T20:23:15.546Z,45.40
2018-04-14T20:25:43.125Z,45.10
2018-04-14T20:28:10.657Z,45.50
2018-04-14T20:30:38.210Z,46.30
2018-04-14T20:33:05.783Z,46.80
2018-04-14T20:35:33.326Z,46.00
2018-04-14T20:38:01.619Z,45.60
2018-04-14T20:40:29.175Z,45.50
2018-04-14T20:42:56.709Z,46.10
2018-04-14T20:45:24.210Z,46.70
2018-04-14T20:47:51.754Z,46.70
2018-04-14T20:50:19.320Z,47.80
2018-04-14T20:52:46.912Z,48.00
2018-04-14T20:55:14.407Z,48.40
2018-04-14T20:57:41.952Z,49.30
2018-04-14T21:00:09.511Z,50.00
2018-04-14T21:02:37.038Z,50.70
2018-04-14T21:05:04.630Z,50.50
2018-04-14T21:07:32.187Z,49.60
2018-04-14T21:09:59.710Z,50.30
2018-04-14T21:12:27.243Z,50.80
2018-04-14T21:14:54.786Z,51.00
2018-04-14T21:17:23.090Z,51.10
2018-04-14T21:19:50.625Z,51.10
2018-04-14T21:22:18.967Z,51.00
2018-04-14T21:24:46.498Z,50.90
2018-04-14T21:27:14.047Z,51.20
2018-04-14T21:29:41.587Z,51.40
2018-04-14T21:32:09.125Z,51.90
2018-04-14T21:34:37.406Z,52.30
2018-04-14T21:37:05.000Z,52.30
2018-04-14T21:39:32.514Z,52.30
2018-04-14T21:42:00.057Z,51.40
2018-04-14T21:44:27.585Z,51.30
2018-04-14T21:46:55.101Z,52.00
2018-04-14T21:49:22.634Z,52.10
2018-04-14T21:51:50.207Z,52.50
2018-04-14T21:54:18.491Z,52.40
2018-04-14T21:56:46.007Z,52.40
2018-04-14T21:59:13.563Z,52.30
2018-04-14T22:01:41.086Z,53.20
2018-04-14T22:04:09.419Z,52.60
2018-04-14T22:06:36.990Z,52.50
2018-04-14T22:09:04.534Z,52.40
2018-04-14T22:11:32.052Z,53.30
2018-04-14T22:13:59.612Z,53.50
2018-04-14T22:16:27.146Z,53.60
2018-04-14T22:18:54.674Z,53.70
2018-04-14T22:21:22.266Z,53.90
2018-04-14T22:23:49.815Z,54.00
2018-04-14T22:26:18.094Z,54.20
2018-04-14T22:28:45.640Z,54.20
2018-04-14T22:31:13.167Z,54.30
2018-04-14T22:33:40.679Z,54.20
2018-04-14T22:36:08.271Z,54.10
2018-04-14T22:38:35.791Z,54.40
2018-04-14T22:41:03.324Z,54.20
2018-04-14T22:43:49.888Z,54.00
2018-04-14T22:46:17.417Z,54.20
2018-04-14T22:48:44.972Z,54.50
2018-04-14T22:51:12.540Z,55.00
2018-04-14T22:53:40.074Z,55.60
2018-04-14T22:56:08.369Z,55.60
2018-04-14T22:58:35.927Z,55.50
2018-04-14T23:01:03.491Z,55.70
2018-04-14T23:03:31.010Z,55.60
2018-04-14T23:05:58.590Z,55.50
2018-04-14T23:08:26.090Z,55.80
2018-04-14T23:10:53.624Z,55.90
2018-04-14T23:13:21.175Z,55.90
2018-04-14T23:15:48.693Z,55.90
2018-04-14T23:18:16.188Z,55.50
2018-04-14T23:20:43.739Z,55.90
2018-04-14T23:23:12.047Z,56.30
2018-04-14T23:25:39.566Z,56.30
2018-04-14T23:28:07.137Z,56.30
2018-04-14T23:30:34.682Z,56.60
2018-04-14T23:33:02.992Z,56.80
2018-04-14T23:35:30.579Z,56.80
2018-04-14T23:37:58.094Z,56.90
2018-04-14T23:40:25.623Z,57.40
2018-04-14T23:42:53.151Z,57.70
2018-04-14T23:45:25.762Z,57.90
2018-04-14T23:47:53.307Z,57.70
2018-04-14T23:50:20.820Z,57.70
2018-04-14T23:52:48.334Z,58.10
2018-04-14T23:55:25.738Z,58.00
2018-04-14T23:57:53.279Z,58.30
